sensor_id;sensor_type;location;lat;lon;timestamp;pressure;altitude;pressure_sealevel;temperature;humidity
34979;BME280;21185;50.978;13.720;2023-07-22T00:03:38;97982.91;;;17.47;66.54
34979;BME280;21185;50.978;13.720;2023-07-22T00:08:40;97979.69;;;17.45;66.64
34979;BME280;21185;50.978;13.720;2023-07-22T00:13:42;97983.56;;;17.43;66.73
34979;BME280;21185;50.978;13.720;2023-07-22T00:18:45;97975.91;;;17.41;66.62
34979;BME280;21185;50.978;13.720;2023-07-22T00:23:47;97983.19;;;17.39;66.71
34979;BME280;21185;50.978;13.720;2023-07-22T00:28:50;97987.03;;;17.37;66.52
34979;BME280;21185;50.978;13.720;2023-07-22T00:33:51;97996.72;;;17.36;66.72
34979;BME280;21185;50.978;13.720;2023-07-22T00:38:53;97998.75;;;17.34;66.43
34979;BME280;21185;50.978;13.720;2023-07-22T00:43:55;97997.13;;;17.33;66.26
34979;BME280;21185;50.978;13.720;2023-07-22T00:48:57;97991.28;;;17.31;66.18
34979;BME280;21185;50.978;13.720;2023-07-22T00:53:58;97990.72;;;17.29;66.11
34979;BME280;21185;50.978;13.720;2023-07-22T00:59:00;97989.31;;;17.27;66.21
34979;BME280;21185;50.978;13.720;2023-07-22T01:04:02;97989.53;;;17.25;66.19
34979;BME280;21185;50.978;13.720;2023-07-22T01:09:06;97989.94;;;17.22;66.09
34979;BME280;21185;50.978;13.720;2023-07-22T01:14:10;97988.34;;;17.21;66.17
34979;BME280;21185;50.978;13.720;2023-07-22T01:19:13;97985.94;;;17.20;66.23
34979;BME280;21185;50.978;13.720;2023-07-22T01:24:16;97982.72;;;17.17;66.20
34979;BME280;21185;50.978;13.720;2023-07-22T01:29:19;97987.38;;;17.15;66.43
34979;BME280;21185;50.978;13.720;2023-07-22T01:34:21;97988.59;;;17.13;66.48
34979;BME280;21185;50.978;13.720;2023-07-22T01:39:23;97989.59;;;17.12;66.47
34979;BME280;21185;50.978;13.720;2023-07-22T01:44:25;97990.03;;;17.09;66.37
34979;BME280;21185;50.978;13.720;2023-07-22T01:49:27;98003.34;;;17.07;66.37
34979;BME280;21185;50.978;13.720;2023-07-22T01:54:29;97997.28;;;17.07;66.49
34979;BME280;21185;50.978;13.720;2023-07-22T01:59:30;98003.75;;;17.04;66.55
34979;BME280;21185;50.978;13.720;2023-07-22T02:04:32;98009.81;;;17.05;66.33
34979;BME280;21185;50.978;13.720;2023-07-22T02:09:34;98010.22;;;17.02;66.51
34979;BME280;21185;50.978;13.720;2023-07-22T02:14:37;98015.09;;;16.98;66.57
34979;BME280;21185;50.978;13.720;2023-07-22T02:19:39;98020.94;;;16.94;66.65
34979;BME280;21185;50.978;13.720;2023-07-22T02:24:40;98026.59;;;16.91;66.50
34979;BME280;21185;50.978;13.720;2023-07-22T02:29:43;98028.41;;;16.90;66.33
34979;BME280;21185;50.978;13.720;2023-07-22T02:34:45;98026.00;;;16.89;66.48
34979;BME280;21185;50.978;13.720;2023-07-22T02:39:46;98037.50;;;16.88;66.62
34979;BME280;21185;50.978;13.720;2023-07-22T02:44:48;98049.41;;;16.83;66.50
34979;BME280;21185;50.978;13.720;2023-07-22T02:49:50;98052.25;;;16.82;66.37
34979;BME280;21185;50.978;13.720;2023-07-22T02:55:08;98054.47;;;16.78;66.63
34979;BME280;21185;50.978;13.720;2023-07-22T03:00:11;98050.44;;;16.76;66.69
34979;BME280;21185;50.978;13.720;2023-07-22T03:05:13;98052.47;;;16.74;66.68
34979;BME280;21185;50.978;13.720;2023-07-22T03:10:15;98056.50;;;16.70;66.69
34979;BME280;21185;50.978;13.720;2023-07-22T03:15:17;98054.91;;;16.69;66.67
34979;BME280;21185;50.978;13.720;2023-07-22T03:20:20;98055.09;;;16.67;66.53
34979;BME280;21185;50.978;13.720;2023-07-22T03:25:23;98065.78;;;16.66;66.66
34979;BME280;21185;50.978;13.720;2023-07-22T03:30:25;98067.59;;;16.65;66.59
34979;BME280;21185;50.978;13.720;2023-07-22T03:35:30;98071.22;;;16.64;66.72
34979;BME280;21185;50.978;13.720;2023-07-22T03:40:32;98080.06;;;16.63;67.04
34979;BME280;21185;50.978;13.720;2023-07-22T03:45:34;98083.72;;;16.62;67.06
34979;BME280;21185;50.978;13.720;2023-07-22T03:50:36;98077.66;;;16.62;66.88
34979;BME280;21185;50.978;13.720;2023-07-22T03:55:38;98083.50;;;16.64;66.99
34979;BME280;21185;50.978;13.720;2023-07-22T04:00:40;98073.66;;;16.66;66.96
34979;BME280;21185;50.978;13.720;2023-07-22T04:05:41;98070.81;;;16.67;67.09
34979;BME280;21185;50.978;13.720;2023-07-22T04:10:50;98082.91;;;16.68;67.17
34979;BME280;21185;50.978;13.720;2023-07-22T04:15:53;98080.69;;;16.72;67.11
34979;BME280;21185;50.978;13.720;2023-07-22T04:20:55;98074.66;;;16.71;67.58
34979;BME280;21185;50.978;13.720;2023-07-22T04:25:57;98081.50;;;16.72;67.54
34979;BME280;21185;50.978;13.720;2023-07-22T04:30:59;98084.91;;;16.73;67.75
34979;BME280;21185;50.978;13.720;2023-07-22T04:36:01;98088.34;;;16.73;67.99
34979;BME280;21185;50.978;13.720;2023-07-22T04:41:03;98099.63;;;16.74;68.37
34979;BME280;21185;50.978;13.720;2023-07-22T04:46:06;98103.84;;;16.75;68.65
34979;BME280;21185;50.978;13.720;2023-07-22T04:51:08;98109.69;;;16.77;68.84
34979;BME280;21185;50.978;13.720;2023-07-22T04:56:10;98114.13;;;16.83;68.85
34979;BME280;21185;50.978;13.720;2023-07-22T05:01:12;98106.25;;;16.90;68.76
34979;BME280;21185;50.978;13.720;2023-07-22T05:06:14;98120.53;;;16.94;68.75
34979;BME280;21185;50.978;13.720;2023-07-22T05:11:16;98123.94;;;17.01;68.90
34979;BME280;21185;50.978;13.720;2023-07-22T05:16:18;98135.22;;;17.08;68.77
34979;BME280;21185;50.978;13.720;2023-07-22T05:21:20;98131.56;;;17.15;68.76
34979;BME280;21185;50.978;13.720;2023-07-22T05:26:21;98136.78;;;17.22;69.04
34979;BME280;21185;50.978;13.720;2023-07-22T05:31:23;98142.81;;;17.29;68.93
34979;BME280;21185;50.978;13.720;2023-07-22T05:36:25;98147.63;;;17.32;68.86
34979;BME280;21185;50.978;13.720;2023-07-22T05:41:27;98136.31;;;17.38;69.13
34979;BME280;21185;50.978;13.720;2023-07-22T05:46:29;98138.91;;;17.45;69.02
34979;BME280;21185;50.978;13.720;2023-07-22T05:51:34;98145.72;;;17.53;68.98
34979;BME280;21185;50.978;13.720;2023-07-22T05:56:36;98145.69;;;17.59;69.20
34979;BME280;21185;50.978;13.720;2023-07-22T06:01:37;98158.19;;;17.64;68.97
34979;BME280;21185;50.978;13.720;2023-07-22T06:06:40;98166.69;;;17.66;68.55
34979;BME280;21185;50.978;13.720;2023-07-22T06:11:41;98165.25;;;17.70;68.45
34979;BME280;21185;50.978;13.720;2023-07-22T06:16:43;98173.28;;;17.75;67.78
34979;BME280;21185;50.978;13.720;2023-07-22T06:21:46;98178.28;;;17.83;67.41
34979;BME280;21185;50.978;13.720;2023-07-22T06:26:48;98172.03;;;17.84;66.30
34979;BME280;21185;50.978;13.720;2023-07-22T06:31:50;98177.84;;;17.93;66.32
34979;BME280;21185;50.978;13.720;2023-07-22T06:36:51;98179.19;;;18.02;65.78
34979;BME280;21185;50.978;13.720;2023-07-22T06:41:53;98175.50;;;18.09;64.94
34979;BME280;21185;50.978;13.720;2023-07-22T06:46:56;98184.56;;;18.13;64.15
34979;BME280;21185;50.978;13.720;2023-07-22T06:51:58;98186.72;;;18.23;64.11
34979;BME280;21185;50.978;13.720;2023-07-22T06:57:00;98192.94;;;18.29;63.40
34979;BME280;21185;50.978;13.720;2023-07-22T07:02:02;98192.69;;;18.37;63.11
34979;BME280;21185;50.978;13.720;2023-07-22T07:07:04;98188.63;;;18.41;62.53
34979;BME280;21185;50.978;13.720;2023-07-22T07:12:07;98197.25;;;18.48;62.10
34979;BME280;21185;50.978;13.720;2023-07-22T07:17:09;98202.25;;;18.56;61.46
34979;BME280;21185;50.978;13.720;2023-07-22T07:22:10;98212.09;;;18.67;61.14
34979;BME280;21185;50.978;13.720;2023-07-22T07:27:12;98218.84;;;18.82;60.76
34979;BME280;21185;50.978;13.720;2023-07-22T07:32:14;98216.19;;;18.82;58.88
34979;BME280;21185;50.978;13.720;2023-07-22T07:37:16;98226.88;;;18.87;58.53
34979;BME280;21185;50.978;13.720;2023-07-22T07:42:17;98222.09;;;19.02;58.38
34979;BME280;21185;50.978;13.720;2023-07-22T07:47:20;98232.41;;;19.22;58.57
34979;BME280;21185;50.978;13.720;2023-07-22T07:52:22;98224.06;;;19.25;57.85
34979;BME280;21185;50.978;13.720;2023-07-22T07:57:24;98234.75;;;19.30;57.38
34979;BME280;21185;50.978;13.720;2023-07-22T08:02:25;98237.22;;;19.25;54.90
34979;BME280;21185;50.978;13.720;2023-07-22T08:07:28;98236.66;;;19.41;55.51
34979;BME280;21185;50.978;13.720;2023-07-22T08:12:30;98231.63;;;19.58;55.63
34979;BME280;21185;50.978;13.720;2023-07-22T08:17:32;98242.28;;;19.63;54.26
34979;BME280;21185;50.978;13.720;2023-07-22T08:22:35;98240.03;;;19.66;53.90
34979;BME280;21185;50.978;13.720;2023-07-22T08:27:37;98239.72;;;19.75;54.11
34979;BME280;21185;50.978;13.720;2023-07-22T08:32:38;98245.00;;;19.75;53.58
34979;BME280;21185;50.978;13.720;2023-07-22T08:37:41;98252.22;;;19.79;52.48
34979;BME280;21185;50.978;13.720;2023-07-22T08:42:43;98254.69;;;19.92;52.04
34979;BME280;21185;50.978;13.720;2023-07-22T08:47:46;98263.00;;;20.08;51.34
34979;BME280;21185;50.978;13.720;2023-07-22T08:52:48;98260.50;;;20.13;50.43
34979;BME280;21185;50.978;13.720;2023-07-22T08:57:50;98271.63;;;20.15;50.53
34979;BME280;21185;50.978;13.720;2023-07-22T09:02:53;98260.06;;;20.16;49.96
34979;BME280;21185;50.978;13.720;2023-07-22T09:07:56;98258.97;;;20.35;50.37
34979;BME280;21185;50.978;13.720;2023-07-22T09:12:59;98258.25;;;20.28;49.67
34979;BME280;21185;50.978;13.720;2023-07-22T09:18:02;98244.94;;;20.41;49.59
34979;BME280;21185;50.978;13.720;2023-07-22T09:23:04;98241.28;;;20.54;49.04
34979;BME280;21185;50.978;13.720;2023-07-22T09:28:15;98237.97;;;20.58;47.27
34979;BME280;21185;50.978;13.720;2023-07-22T09:33:20;98243.94;;;20.65;47.18
34979;BME280;21185;50.978;13.720;2023-07-22T09:38:23;98233.28;;;20.72;46.07
34979;BME280;21185;50.978;13.720;2023-07-22T09:43:26;98235.56;;;20.68;45.96
34979;BME280;21185;50.978;13.720;2023-07-22T09:48:28;98238.31;;;20.62;46.92
34979;BME280;21185;50.978;13.720;2023-07-22T09:53:30;98226.41;;;20.71;46.61
34979;BME280;21185;50.978;13.720;2023-07-22T09:58:32;98222.03;;;20.88;47.17
34979;BME280;21185;50.978;13.720;2023-07-22T10:03:35;98224.31;;;21.20;46.90
34979;BME280;21185;50.978;13.720;2023-07-22T10:08:39;98226.97;;;21.31;45.40
34979;BME280;21185;50.978;13.720;2023-07-22T10:13:43;98225.09;;;21.44;45.57
34979;BME280;21185;50.978;13.720;2023-07-22T10:18:45;98234.06;;;21.43;44.71
34979;BME280;21185;50.978;13.720;2023-07-22T10:23:50;98233.59;;;21.46;44.74
34979;BME280;21185;50.978;13.720;2023-07-22T10:28:52;98234.06;;;21.43;43.93
34979;BME280;21185;50.978;13.720;2023-07-22T10:33:55;98233.94;;;21.38;44.14
34979;BME280;21185;50.978;13.720;2023-07-22T10:38:59;98218.09;;;21.49;43.63
34979;BME280;21185;50.978;13.720;2023-07-22T10:44:05;98232.88;;;21.62;43.70
34979;BME280;21185;50.978;13.720;2023-07-22T10:49:11;98225.78;;;21.51;43.28
34979;BME280;21185;50.978;13.720;2023-07-22T10:54:14;98221.63;;;21.55;43.92
34979;BME280;21185;50.978;13.720;2023-07-22T10:59:17;98222.63;;;21.65;43.66
34979;BME280;21185;50.978;13.720;2023-07-22T11:04:27;98229.81;;;21.82;44.07
34979;BME280;21185;50.978;13.720;2023-07-22T11:09:53;98225.94;;;21.73;43.35
34979;BME280;21185;50.978;13.720;2023-07-22T11:15:02;98216.94;;;21.85;43.41
34979;BME280;21185;50.978;13.720;2023-07-22T11:20:05;98224.00;;;21.96;42.82
34979;BME280;21185;50.978;13.720;2023-07-22T11:25:07;98218.63;;;22.03;41.54
34979;BME280;21185;50.978;13.720;2023-07-22T11:30:10;98201.25;;;22.07;41.95
34979;BME280;21185;50.978;13.720;2023-07-22T11:35:12;98193.44;;;22.01;42.31
34979;BME280;21185;50.978;13.720;2023-07-22T11:40:16;98182.59;;;22.14;42.11
34979;BME280;21185;50.978;13.720;2023-07-22T11:45:19;98198.16;;;22.27;41.45
34979;BME280;21185;50.978;13.720;2023-07-22T11:50:30;98187.97;;;22.19;41.97
34979;BME280;21185;50.978;13.720;2023-07-22T11:55:34;98175.88;;;22.23;42.30
34979;BME280;21185;50.978;13.720;2023-07-22T12:00:41;98182.28;;;22.10;43.48
34979;BME280;21185;50.978;13.720;2023-07-22T12:06:03;98182.31;;;21.98;43.47
34979;BME280;21185;50.978;13.720;2023-07-22T12:11:05;98185.16;;;22.09;43.64
34979;BME280;21185;50.978;13.720;2023-07-22T12:16:07;98183.25;;;22.21;43.28
34979;BME280;21185;50.978;13.720;2023-07-22T12:21:09;98176.22;;;22.43;42.75
34979;BME280;21185;50.978;13.720;2023-07-22T12:26:11;98173.31;;;22.61;42.94
34979;BME280;21185;50.978;13.720;2023-07-22T12:31:13;98168.75;;;22.74;42.11
34979;BME280;21185;50.978;13.720;2023-07-22T12:36:15;98167.69;;;22.75;41.45
34979;BME280;21185;50.978;13.720;2023-07-22T12:41:17;98165.97;;;22.80;40.63
34979;BME280;21185;50.978;13.720;2023-07-22T12:46:19;98165.19;;;23.02;41.45
34979;BME280;21185;50.978;13.720;2023-07-22T12:51:21;98159.78;;;23.13;41.89
34979;BME280;21185;50.978;13.720;2023-07-22T12:56:23;98163.09;;;23.04;41.90
34979;BME280;21185;50.978;13.720;2023-07-22T13:01:25;98168.34;;;22.82;42.15
34979;BME280;21185;50.978;13.720;2023-07-22T13:06:27;98162.25;;;22.65;41.86
34979;BME280;21185;50.978;13.720;2023-07-22T13:11:31;98154.19;;;22.54;41.79
34979;BME280;21185;50.978;13.720;2023-07-22T13:16:33;98151.78;;;22.53;41.58
34979;BME280;21185;50.978;13.720;2023-07-22T13:21:35;98150.81;;;22.59;41.67
34979;BME280;21185;50.978;13.720;2023-07-22T13:26:37;98142.88;;;22.59;40.61
34979;BME280;21185;50.978;13.720;2023-07-22T13:31:41;98142.38;;;22.62;40.39
34979;BME280;21185;50.978;13.720;2023-07-22T13:36:43;98151.13;;;22.62;40.86
34979;BME280;21185;50.978;13.720;2023-07-22T13:41:45;98146.06;;;22.61;40.87
34979;BME280;21185;50.978;13.720;2023-07-22T13:46:47;98141.91;;;22.82;40.92
34979;BME280;21185;50.978;13.720;2023-07-22T13:51:49;98138.69;;;22.80;41.14
34979;BME280;21185;50.978;13.720;2023-07-22T13:56:51;98143.41;;;22.78;41.64
34979;BME280;21185;50.978;13.720;2023-07-22T14:01:53;98136.19;;;22.90;41.97
34979;BME280;21185;50.978;13.720;2023-07-22T14:06:55;98133.44;;;23.02;41.81
34979;BME280;21185;50.978;13.720;2023-07-22T14:11:57;98124.06;;;22.94;42.19
34979;BME280;21185;50.978;13.720;2023-07-22T14:16:59;98117.31;;;23.03;42.16
34979;BME280;21185;50.978;13.720;2023-07-22T14:22:01;98109.72;;;23.34;42.22
34979;BME280;21185;50.978;13.720;2023-07-22T14:27:03;98107.78;;;23.51;41.82
34979;BME280;21185;50.978;13.720;2023-07-22T14:32:05;98103.50;;;23.45;42.36
34979;BME280;21185;50.978;13.720;2023-07-22T14:37:07;98099.44;;;23.37;42.49
34979;BME280;21185;50.978;13.720;2023-07-22T14:42:09;98097.69;;;23.48;41.74
34979;BME280;21185;50.978;13.720;2023-07-22T14:47:10;98095.69;;;23.55;40.82
34979;BME280;21185;50.978;13.720;2023-07-22T14:52:13;98094.44;;;23.41;40.02
34979;BME280;21185;50.978;13.720;2023-07-22T14:57:16;98091.59;;;23.20;40.47
34979;BME280;21185;50.978;13.720;2023-07-22T15:02:18;98092.06;;;23.17;39.94
34979;BME280;21185;50.978;13.720;2023-07-22T15:07:21;98095.88;;;23.26;40.33
34979;BME280;21185;50.978;13.720;2023-07-22T15:12:23;98090.19;;;23.40;40.51
34979;BME280;21185;50.978;13.720;2023-07-22T15:17:25;98106.41;;;23.43;40.59
34979;BME280;21185;50.978;13.720;2023-07-22T15:22:27;98096.28;;;23.40;40.00
34979;BME280;21185;50.978;13.720;2023-07-22T15:27:29;98101.72;;;23.29;39.57
34979;BME280;21185;50.978;13.720;2023-07-22T15:32:31;98092.38;;;23.21;39.69
34979;BME280;21185;50.978;13.720;2023-07-22T15:37:33;98088.38;;;23.18;39.79
34979;BME280;21185;50.978;13.720;2023-07-22T15:42:37;98087.38;;;23.24;40.10
34979;BME280;21185;50.978;13.720;2023-07-22T15:47:39;98085.28;;;23.26;40.09
34979;BME280;21185;50.978;13.720;2023-07-22T15:52:40;98089.00;;;23.25;39.41
34979;BME280;21185;50.978;13.720;2023-07-22T15:57:42;98090.22;;;23.18;39.45
34979;BME280;21185;50.978;13.720;2023-07-22T16:02:45;98102.53;;;23.07;38.48
34979;BME280;21185;50.978;13.720;2023-07-22T16:07:47;98092.13;;;23.01;38.46
34979;BME280;21185;50.978;13.720;2023-07-22T16:12:49;98092.88;;;22.96;38.13
34979;BME280;21185;50.978;13.720;2023-07-22T16:17:50;98082.91;;;23.03;38.30
34979;BME280;21185;50.978;13.720;2023-07-22T16:22:53;98081.97;;;23.14;38.32
34979;BME280;21185;50.978;13.720;2023-07-22T16:27:55;98083.44;;;23.27;38.47
34979;BME280;21185;50.978;13.720;2023-07-22T16:32:57;98075.25;;;23.29;37.78
34979;BME280;21185;50.978;13.720;2023-07-22T16:37:59;98065.16;;;23.25;38.24
34979;BME280;21185;50.978;13.720;2023-07-22T16:43:03;98058.78;;;23.21;38.33
34979;BME280;21185;50.978;13.720;2023-07-22T16:48:05;98067.22;;;23.18;38.61
34979;BME280;21185;50.978;13.720;2023-07-22T16:53:07;98061.06;;;23.13;38.15
34979;BME280;21185;50.978;13.720;2023-07-22T16:58:09;98063.66;;;23.08;37.78
34979;BME280;21185;50.978;13.720;2023-07-22T17:03:11;98066.47;;;23.01;37.78
34979;BME280;21185;50.978;13.720;2023-07-22T17:08:13;98053.19;;;22.96;37.44
34979;BME280;21185;50.978;13.720;2023-07-22T17:13:15;98052.88;;;22.92;37.70
34979;BME280;21185;50.978;13.720;2023-07-22T17:18:19;98051.78;;;22.88;37.82
34979;BME280;21185;50.978;13.720;2023-07-22T17:23:21;98055.97;;;22.84;37.93
34979;BME280;21185;50.978;13.720;2023-07-22T17:28:23;98055.31;;;22.77;37.82
34979;BME280;21185;50.978;13.720;2023-07-22T17:33:25;98055.25;;;22.72;37.82
34979;BME280;21185;50.978;13.720;2023-07-22T17:38:27;98054.94;;;22.69;38.09
34979;BME280;21185;50.978;13.720;2023-07-22T17:43:29;98046.94;;;22.63;38.23
34979;BME280;21185;50.978;13.720;2023-07-22T17:48:30;98047.69;;;22.59;38.11
34979;BME280;21185;50.978;13.720;2023-07-22T17:53:32;98043.13;;;22.54;38.35
34979;BME280;21185;50.978;13.720;2023-07-22T17:58:34;98034.06;;;22.50;38.25
34979;BME280;21185;50.978;13.720;2023-07-22T18:03:36;98026.63;;;22.47;38.41
34979;BME280;21185;50.978;13.720;2023-07-22T18:08:38;98029.75;;;22.44;38.53
34979;BME280;21185;50.978;13.720;2023-07-22T18:13:40;98023.91;;;22.42;38.55
34979;BME280;21185;50.978;13.720;2023-07-22T18:18:42;98033.94;;;22.40;38.78
34979;BME280;21185;50.978;13.720;2023-07-22T18:23:44;98032.59;;;22.38;39.27
34979;BME280;21185;50.978;13.720;2023-07-22T18:28:45;98039.72;;;22.37;39.11
34979;BME280;21185;50.978;13.720;2023-07-22T18:33:48;98043.88;;;22.33;39.25
34979;BME280;21185;50.978;13.720;2023-07-22T18:38:50;98041.41;;;22.26;39.51
34979;BME280;21185;50.978;13.720;2023-07-22T18:43:52;98046.06;;;22.19;39.60
34979;BME280;21185;50.978;13.720;2023-07-22T18:48:54;98051.44;;;22.08;40.08
34979;BME280;21185;50.978;13.720;2023-07-22T18:53:56;98042.78;;;21.95;40.11
34979;BME280;21185;50.978;13.720;2023-07-22T18:58:59;98044.69;;;21.83;40.31
34979;BME280;21185;50.978;13.720;2023-07-22T19:04:01;98043.16;;;21.71;40.81
34979;BME280;21185;50.978;13.720;2023-07-22T19:09:03;98041.63;;;21.58;40.68
34979;BME280;21185;50.978;13.720;2023-07-22T19:14:05;98049.84;;;21.45;40.91
34979;BME280;21185;50.978;13.720;2023-07-22T19:19:06;98058.63;;;21.33;41.03
34979;BME280;21185;50.978;13.720;2023-07-22T19:24:08;98061.06;;;21.23;41.36
34979;BME280;21185;50.978;13.720;2023-07-22T19:29:10;98063.50;;;21.13;41.31
34979;BME280;21185;50.978;13.720;2023-07-22T19:34:12;98060.66;;;21.03;41.62
34979;BME280;21185;50.978;13.720;2023-07-22T19:39:16;98052.53;;;20.93;41.68
34979;BME280;21185;50.978;13.720;2023-07-22T19:44:18;98057.59;;;20.83;41.78
34979;BME280;21185;50.978;13.720;2023-07-22T19:49:20;98065.91;;;20.75;41.55
34979;BME280;21185;50.978;13.720;2023-07-22T19:54:21;98046.78;;;20.67;41.99
34979;BME280;21185;50.978;13.720;2023-07-22T19:59:23;98047.72;;;20.61;41.97
34979;BME280;21185;50.978;13.720;2023-07-22T20:04:26;98048.63;;;20.55;42.02
34979;BME280;21185;50.978;13.720;2023-07-22T20:09:28;98054.03;;;20.49;41.90
34979;BME280;21185;50.978;13.720;2023-07-22T20:14:30;98054.25;;;20.47;42.24
34979;BME280;21185;50.978;13.720;2023-07-22T20:19:32;98047.84;;;20.43;41.95
34979;BME280;21185;50.978;13.720;2023-07-22T20:24:34;98059.88;;;20.39;42.15
34979;BME280;21185;50.978;13.720;2023-07-22T20:29:40;98059.72;;;20.34;42.46
34979;BME280;21185;50.978;13.720;2023-07-22T20:34:41;98054.69;;;20.32;42.13
34979;BME280;21185;50.978;13.720;2023-07-22T20:39:43;98055.94;;;20.30;42.53
34979;BME280;21185;50.978;13.720;2023-07-22T20:44:45;98057.56;;;20.31;42.44
34979;BME280;21185;50.978;13.720;2023-07-22T20:49:47;98050.00;;;20.34;42.19
34979;BME280;21185;50.978;13.720;2023-07-22T20:54:48;98052.53;;;20.41;42.54
34979;BME280;21185;50.978;13.720;2023-07-22T20:59:54;98051.06;;;20.45;42.35
34979;BME280;21185;50.978;13.720;2023-07-22T21:04:56;98051.28;;;20.44;42.20
34979;BME280;21185;50.978;13.720;2023-07-22T21:09:58;98052.53;;;20.41;42.64
34979;BME280;21185;50.978;13.720;2023-07-22T21:14:59;98053.34;;;20.42;42.51
34979;BME280;21185;50.978;13.720;2023-07-22T21:20:01;98040.75;;;20.44;42.63
34979;BME280;21185;50.978;13.720;2023-07-22T21:25:03;98044.19;;;20.44;42.42
34979;BME280;21185;50.978;13.720;2023-07-22T21:30:05;98052.53;;;20.41;42.64
34979;BME280;21185;50.978;13.720;2023-07-22T21:35:07;98042.44;;;20.38;42.78
34979;BME280;21185;50.978;13.720;2023-07-22T21:40:09;98049.19;;;20.34;43.01
34979;BME280;21185;50.978;13.720;2023-07-22T21:45:11;98053.91;;;20.32;42.62
34979;BME280;21185;50.978;13.720;2023-07-22T21:50:12;98043.59;;;20.30;42.74
34979;BME280;21185;50.978;13.720;2023-07-22T21:55:14;98049.88;;;20.29;42.97
34979;BME280;21185;50.978;13.720;2023-07-22T22:00:16;98042.78;;;20.30;43.04
34979;BME280;21185;50.978;13.720;2023-07-22T22:05:19;98050.69;;;20.30;43.19
34979;BME280;21185;50.978;13.720;2023-07-22T22:10:21;98044.63;;;20.29;43.00
34979;BME280;21185;50.978;13.720;2023-07-22T22:15:23;98046.44;;;20.29;42.94
34979;BME280;21185;50.978;13.720;2023-07-22T22:20:24;98051.94;;;20.27;43.11
34979;BME280;21185;50.978;13.720;2023-07-22T22:25:26;98050.34;;;20.26;43.11
34979;BME280;21185;50.978;13.720;2023-07-22T22:30:28;98051.38;;;20.25;43.28
34979;BME280;21185;50.978;13.720;2023-07-22T22:35:30;98057.44;;;20.26;43.39
34979;BME280;21185;50.978;13.720;2023-07-22T22:40:34;98046.34;;;20.24;43.44
34979;BME280;21185;50.978;13.720;2023-07-22T22:45:37;98056.06;;;20.23;43.42
34979;BME280;21185;50.978;13.720;2023-07-22T22:50:42;98052.41;;;20.24;43.51
34979;BME280;21185;50.978;13.720;2023-07-22T22:55:47;98052.19;;;20.26;43.98
34979;BME280;21185;50.978;13.720;2023-07-22T23:00:53;98046.91;;;20.26;43.65
34979;BME280;21185;50.978;13.720;2023-07-22T23:05:55;98040.59;;;20.27;43.59
34979;BME280;21185;50.978;13.720;2023-07-22T23:10:56;98051.38;;;20.25;43.97
34979;BME280;21185;50.978;13.720;2023-07-22T23:15:58;98046.91;;;20.26;44.08
34979;BME280;21185;50.978;13.720;2023-07-22T23:21:00;98039.22;;;20.24;43.86
34979;BME280;21185;50.978;13.720;2023-07-22T23:26:01;98031.56;;;20.23;44.12
34979;BME280;21185;50.978;13.720;2023-07-22T23:31:03;98018.63;;;20.21;44.38
34979;BME280;21185;50.978;13.720;2023-07-22T23:36:05;98023.06;;;20.21;44.29
34979;BME280;21185;50.978;13.720;2023-07-22T23:41:12;98026.75;;;20.20;44.42
34979;BME280;21185;50.978;13.720;2023-07-22T23:46:13;98021.72;;;20.18;44.72
34979;BME280;21185;50.978;13.720;2023-07-22T23:51:15;98016.22;;;20.20;44.44
34979;BME280;21185;50.978;13.720;2023-07-22T23:56:17;98015.19;;;20.21;44.63
